createdAt,value
2022-09-23T00:01:05.438Z,14.7
2022-09-23T00:06:07.766Z,14.2
2022-09-23T00:11:09.674Z,14.5
2022-09-23T00:16:11.664Z,15.7
2022-09-23T00:21:13.847Z,15.9
2022-09-23T00:26:16.093Z,15.2
2022-09-23T00:31:18.227Z,15.4
2022-09-23T00:36:20.607Z,14.7
2022-09-23T00:41:22.833Z,15.3
2022-09-23T00:46:24.999Z,16.1
2022-09-23T00:51:27.827Z,15.1
2022-09-23T00:56:29.940Z,15.2
2022-09-23T01:01:31.961Z,13
2022-09-23T01:06:34.602Z,13
2022-09-23T01:11:36.628Z,12.5
2022-09-23T01:16:38.638Z,11.9
2022-09-23T01:21:40.893Z,11.3
2022-09-23T01:26:42.890Z,11.5
2022-09-23T01:31:44.870Z,12.6
2022-09-23T01:36:46.837Z,10.9
2022-09-23T01:41:48.822Z,11.8
2022-09-23T01:46:51.214Z,11
2022-09-23T01:51:53.366Z,10.5
2022-09-23T01:56:55.666Z,11.3
2022-09-23T02:01:57.755Z,11.2
2022-09-23T02:12:02.543Z,10.8
2022-09-23T02:17:04.562Z,10.5
2022-09-23T02:22:07.058Z,9.9
2022-09-23T02:27:09.446Z,10
2022-09-23T02:32:11.303Z,11.6
2022-09-23T02:37:13.997Z,11.6
2022-09-23T02:42:16.383Z,9.4
2022-09-23T02:47:18.239Z,9.1
2022-09-23T02:52:20.484Z,9.6
2022-09-23T02:57:22.417Z,11.9
2022-09-23T03:02:24.441Z,11.6
2022-09-23T03:07:26.973Z,11.2
2022-09-23T03:12:28.936Z,11
2022-09-23T03:17:31.383Z,13.1
2022-09-23T03:22:33.612Z,13.3
2022-09-23T03:27:35.999Z,12.8
2022-09-23T03:32:38.009Z,12.6
2022-09-23T03:37:40.176Z,11.2
2022-09-23T03:47:44.651Z,12.1
2022-09-23T03:52:46.833Z,10.9
2022-09-23T03:57:49.041Z,11.3
2022-09-23T04:02:51.068Z,12.4
2022-09-23T04:07:53.634Z,18
2022-09-23T04:12:55.595Z,11.9
2022-09-23T04:17:57.604Z,12.4
2022-09-23T04:22:59.657Z,12.6
2022-09-23T04:28:01.756Z,13.8
2022-09-23T04:33:03.723Z,13.9
2022-09-23T04:38:06.341Z,16.1
2022-09-23T04:43:12.934Z,18.2
2022-09-23T04:48:16.051Z,18.6
2022-09-23T04:53:18.829Z,15.8
2022-09-23T04:58:20.989Z,15.5
2022-09-23T05:03:23.146Z,17.7
2022-09-23T05:08:25.408Z,18.7
2022-09-23T05:13:27.400Z,18.8
2022-09-23T05:18:29.329Z,23.8
2022-09-23T05:23:31.700Z,17
2022-09-23T05:28:33.738Z,21.9
2022-09-23T05:33:35.747Z,17.6
2022-09-23T05:38:36.779Z,17.1
2022-09-23T05:43:38.938Z,21.6
2022-09-23T05:48:40.860Z,20.9
2022-09-23T05:53:42.889Z,17.6
2022-09-23T05:58:44.837Z,12.9
2022-09-23T06:03:46.748Z,12
2022-09-23T06:08:48.711Z,12.2
2022-09-23T06:13:50.692Z,14.4
2022-09-23T06:18:52.583Z,20.5
2022-09-23T06:23:57.014Z,13
2022-09-23T06:28:59.376Z,14.5
2022-09-23T06:34:10.291Z,10.4
2022-09-23T06:39:05.700Z,11
2022-09-23T06:44:07.845Z,8.3
2022-09-23T06:49:10.382Z,20.4
2022-09-23T06:54:12.820Z,9.5
2022-09-23T06:59:15.040Z,8.9
2022-09-23T07:04:17.031Z,7.1
2022-09-23T07:09:19.145Z,6.3
2022-09-23T07:14:21.102Z,7.6
2022-09-23T07:19:23.101Z,8
2022-09-23T07:24:25.009Z,7
2022-09-23T07:29:27.818Z,7.1
2022-09-23T07:34:29.359Z,5.7
2022-09-23T07:39:31.280Z,3.8
2022-09-23T07:44:33.327Z,3.9
2022-09-23T07:49:35.254Z,3.5
2022-09-23T07:54:37.243Z,6.3
2022-09-23T07:59:39.174Z,4.5
2022-09-23T08:04:41.053Z,6.2
2022-09-23T08:09:41.419Z,4.2
2022-09-23T08:14:43.388Z,4
2022-09-23T08:19:45.335Z,3.4
2022-09-23T08:24:47.300Z,4.6
2022-09-23T08:29:49.814Z,3.8
2022-09-23T08:34:51.743Z,3.9
2022-09-23T08:39:53.826Z,4.9
2022-09-23T08:44:56.009Z,4.5
2022-09-23T08:49:58.013Z,3.8
2022-09-23T08:55:00.286Z,3
2022-09-23T09:00:02.248Z,3
2022-09-23T09:05:04.301Z,4.7
2022-09-23T09:10:06.337Z,2.7
2022-09-23T09:15:08.410Z,4.4
2022-09-23T09:20:10.420Z,5
2022-09-23T09:25:14.220Z,2.1
2022-09-23T09:30:16.876Z,3.4
2022-09-23T09:35:19.068Z,2.6
2022-09-23T09:40:21.067Z,2.7
2022-09-23T09:45:23.701Z,2.6
2022-09-23T09:50:25.716Z,3.1
2022-09-23T09:55:27.923Z,2.4
2022-09-23T10:00:30.301Z,2.5
2022-09-23T10:05:32.272Z,3
2022-09-23T10:10:34.321Z,2.2
2022-09-23T10:15:36.961Z,2.2
2022-09-23T10:20:46.202Z,2.3
2022-09-23T10:25:48.176Z,3.5
2022-09-23T10:30:50.271Z,2.5
2022-09-23T10:35:52.422Z,3.5
2022-09-23T10:40:54.521Z,3.4
2022-09-23T10:45:55.427Z,2.2
2022-09-23T10:50:59.401Z,2.9
2022-09-23T10:56:01.812Z,2.3
2022-09-23T11:01:03.950Z,2.1
2022-09-23T11:06:06.461Z,2.9
2022-09-23T11:11:08.499Z,2.3
2022-09-23T11:16:10.559Z,2.7
2022-09-23T11:21:12.769Z,2.3
2022-09-23T11:26:15.147Z,4.2
2022-09-23T11:31:17.814Z,2.2
2022-09-23T11:36:20.050Z,2.5
2022-09-23T11:41:21.995Z,2.6
2022-09-23T11:46:24.309Z,2.4
2022-09-23T11:51:26.663Z,1.8
2022-09-23T11:56:34.467Z,2.5
2022-09-23T12:01:38.576Z,3
2022-09-23T12:06:46.664Z,2.2
2022-09-23T12:11:48.805Z,2.2
2022-09-23T12:16:50.877Z,2.6
2022-09-23T12:21:53.116Z,3.3
2022-09-23T12:26:55.461Z,2.3
2022-09-23T12:31:57.679Z,3.2
2022-09-23T12:36:59.703Z,3
2022-09-23T12:42:01.672Z,2.7
2022-09-23T12:47:03.965Z,3.9
2022-09-23T12:52:06.295Z,2.7
2022-09-23T12:57:08.272Z,1.9
2022-09-23T13:02:10.393Z,2.6
2022-09-23T13:07:13.028Z,2.6
2022-09-23T13:12:15.270Z,2.4
2022-09-23T13:17:17.484Z,2.4
2022-09-23T13:22:19.491Z,2.5
2022-09-23T13:27:21.626Z,2.3
2022-09-23T13:32:23.733Z,2.5
2022-09-23T13:37:25.807Z,2.6
2022-09-23T13:42:27.730Z,3
2022-09-23T13:47:30.244Z,2.4
2022-09-23T13:52:32.234Z,3.2
2022-09-23T13:57:34.258Z,2.7
2022-09-23T14:02:36.356Z,2.9
2022-09-23T14:07:38.959Z,3.7
2022-09-23T14:12:41.009Z,2.8
2022-09-23T14:17:43.043Z,3
2022-09-23T14:22:45.103Z,4
2022-09-23T14:27:47.175Z,4.2
2022-09-23T14:32:49.324Z,4
2022-09-23T14:37:51.531Z,3.7
2022-09-23T14:42:53.758Z,7.3
2022-09-23T14:47:56.052Z,3.4
2022-09-23T14:52:58.107Z,5.1
2022-09-23T14:58:00.124Z,3.4
2022-09-23T15:03:02.143Z,2.8
2022-09-23T15:08:04.451Z,3.6
2022-09-23T15:13:06.789Z,4.1
2022-09-23T15:18:08.780Z,2.8
2022-09-23T15:23:10.771Z,4.4
2022-09-23T15:28:12.953Z,2.9
2022-09-23T15:33:14.933Z,2.9
2022-09-23T15:38:17.226Z,2.9
2022-09-23T15:43:21.301Z,2.7
2022-09-23T15:48:24.769Z,2.7
2022-09-23T15:53:26.921Z,2.9
2022-09-23T15:58:29.001Z,4.4
2022-09-23T16:03:31.046Z,3.9
2022-09-23T16:08:33.392Z,2.8
2022-09-23T16:13:35.681Z,2.9
2022-09-23T16:18:37.721Z,2.6
2022-09-23T16:23:39.803Z,2.7
2022-09-23T16:28:41.943Z,3.5
2022-09-23T16:33:43.985Z,3.7
2022-09-23T16:38:45.875Z,4.2
2022-09-23T16:43:48.067Z,3.3
2022-09-23T16:49:07.950Z,3.7
2022-09-23T16:54:10.492Z,4.6
2022-09-23T16:59:12.482Z,5.3
2022-09-23T17:04:14.529Z,7.6
2022-09-23T17:09:16.462Z,6.9
2022-09-23T17:14:18.909Z,7.2
2022-09-23T17:19:20.878Z,7.8
2022-09-23T17:24:22.950Z,6
2022-09-23T17:29:25.040Z,6.7
2022-09-23T17:34:27.149Z,9.1
2022-09-23T17:39:29.522Z,8.5
2022-09-23T17:44:31.633Z,7.1
2022-09-23T17:49:33.756Z,8
2022-09-23T17:54:35.911Z,7.4
2022-09-23T17:59:37.847Z,6.9
2022-09-23T18:04:39.931Z,7.2
2022-09-23T18:09:41.978Z,6.1
2022-09-23T18:14:43.979Z,6.4
2022-09-23T18:19:45.913Z,5.9
2022-09-23T18:24:48.114Z,6.4
2022-09-23T18:29:50.419Z,7.1
2022-09-23T18:34:52.555Z,8.6
2022-09-23T18:39:54.526Z,9.1
2022-09-23T18:44:56.488Z,8.4
2022-09-23T18:49:58.622Z,8
2022-09-23T18:55:01.192Z,7.1
2022-09-23T19:00:03.696Z,7.7
2022-09-23T19:05:05.650Z,7.5
2022-09-23T19:10:07.895Z,13.6
2022-09-23T19:15:08.308Z,8
2022-09-23T19:20:10.504Z,7.7
2022-09-23T19:25:12.474Z,8.4
2022-09-23T19:30:14.513Z,10.8
2022-09-23T19:35:17.893Z,9.7
2022-09-23T19:40:20.419Z,10.8
2022-09-23T19:45:22.790Z,13.2
2022-09-23T19:50:25.378Z,10.8
2022-09-23T19:55:27.303Z,12.1
2022-09-23T20:00:29.398Z,13.4
2022-09-23T20:05:31.605Z,21.4
2022-09-23T20:10:33.167Z,12
2022-09-23T20:15:35.385Z,9.9
2022-09-23T20:20:37.401Z,11.9
2022-09-23T20:25:39.369Z,12.3
2022-09-23T20:30:41.391Z,13
2022-09-23T20:35:43.361Z,11.9
2022-09-23T20:40:45.339Z,11.6
2022-09-23T20:45:47.466Z,11.1
2022-09-23T20:50:49.618Z,14
2022-09-23T20:55:52.185Z,11.2
2022-09-23T21:00:54.405Z,12
2022-09-23T21:05:56.659Z,11.2
2022-09-23T21:10:58.624Z,12.6
2022-09-23T21:16:00.595Z,10.6
2022-09-23T21:21:02.802Z,11
2022-09-23T21:26:05.014Z,12
2022-09-23T21:31:06.950Z,11.3
2022-09-23T21:36:09.501Z,10.4
2022-09-23T21:41:11.471Z,9.9
2022-09-23T21:46:13.538Z,10.3
2022-09-23T21:51:15.920Z,9.5
2022-09-23T21:56:20.632Z,11.4
2022-09-23T22:01:22.903Z,15.5
2022-09-23T22:06:25.378Z,12.8
2022-09-23T22:11:27.265Z,10
2022-09-23T22:16:29.234Z,10.1
2022-09-23T22:21:31.571Z,11.3
2022-09-23T22:26:33.734Z,10
2022-09-23T22:31:36.122Z,12.5
2022-09-23T22:36:38.450Z,11.5
2022-09-23T22:41:40.385Z,10.5
2022-09-23T22:46:42.428Z,10.7
2022-09-23T22:51:44.920Z,13.8
2022-09-23T22:56:46.940Z,12.7
2022-09-23T23:01:49.226Z,14
2022-09-23T23:06:51.869Z,12.1
2022-09-23T23:11:53.899Z,12.6
2022-09-23T23:16:55.794Z,15.6
2022-09-23T23:21:57.787Z,31.1
2022-09-23T23:26:58.245Z,12.4
2022-09-23T23:32:00.260Z,13.9
2022-09-23T23:37:02.227Z,11.3
2022-09-23T23:42:04.113Z,11.9
2022-09-23T23:47:06.203Z,11
2022-09-23T23:52:08.527Z,13.4
2022-09-23T23:57:10.442Z,12.3
